sensor_id;sensor_type;location;lat;lon;timestamp;pressure;altitude;pressure_sealevel;temperature;humidity
12247;BME280;6186;52.022;4.692;2023-01-31T00:01:34;102595.41;;;5.71;99.80
12247;BME280;6186;52.022;4.692;2023-01-31T00:04:02;102601.63;;;5.75;99.88
12247;BME280;6186;52.022;4.692;2023-01-31T00:06:33;102598.13;;;5.74;100.00
12247;BME280;6186;52.022;4.692;2023-01-31T00:09:00;102602.44;;;5.74;100.00
12247;BME280;6186;52.022;4.692;2023-01-31T00:11:28;102591.94;;;5.71;99.85
12247;BME280;6186;52.022;4.692;2023-01-31T00:13:54;102599.00;;;5.75;100.00
12247;BME280;6186;52.022;4.692;2023-01-31T00:16:21;102591.91;;;5.69;100.00
12247;BME280;6186;52.022;4.692;2023-01-31T00:18:47;102593.84;;;5.78;100.00
12247;BME280;6186;52.022;4.692;2023-01-31T00:21:19;102577.25;;;5.76;100.00
12247;BME280;6186;52.022;4.692;2023-01-31T00:23:46;102584.47;;;5.85;100.00
12247;BME280;6186;52.022;4.692;2023-01-31T00:26:15;102579.28;;;5.88;100.00
12247;BME280;6186;52.022;4.692;2023-01-31T00:28:42;102555.59;;;5.82;100.00
12247;BME280;6186;52.022;4.692;2023-01-31T00:31:08;102549.66;;;5.87;100.00
12247;BME280;6186;52.022;4.692;2023-01-31T00:33:35;102548.78;;;5.87;100.00
12247;BME280;6186;52.022;4.692;2023-01-31T00:36:06;102542.66;;;5.85;100.00
12247;BME280;6186;52.022;4.692;2023-01-31T00:38:32;102532.94;;;5.81;100.00
12247;BME280;6186;52.022;4.692;2023-01-31T00:40:58;102528.50;;;5.77;99.76
12247;BME280;6186;52.022;4.692;2023-01-31T00:43:24;102530.09;;;5.71;100.00
12247;BME280;6186;52.022;4.692;2023-01-31T00:45:49;102521.31;;;5.66;100.00
12247;BME280;6186;52.022;4.692;2023-01-31T00:48:14;102509.88;;;5.61;99.75
12247;BME280;6186;52.022;4.692;2023-01-31T00:50:40;102510.66;;;5.57;99.77
12247;BME280;6186;52.022;4.692;2023-01-31T00:53:05;102514.03;;;5.53;100.00
12247;BME280;6186;52.022;4.692;2023-01-31T00:55:31;102510.50;;;5.50;100.00
12247;BME280;6186;52.022;4.692;2023-01-31T00:57:56;102503.59;;;5.53;99.83
12247;BME280;6186;52.022;4.692;2023-01-31T01:00:22;102494.78;;;5.48;99.86
12247;BME280;6186;52.022;4.692;2023-01-31T01:02:47;102497.38;;;5.47;100.00
12247;BME280;6186;52.022;4.692;2023-01-31T01:05:12;102509.56;;;5.48;100.00
12247;BME280;6186;52.022;4.692;2023-01-31T01:07:38;102499.94;;;5.45;100.00
12247;BME280;6186;52.022;4.692;2023-01-31T01:10:04;102498.94;;;5.39;99.70
12247;BME280;6186;52.022;4.692;2023-01-31T01:12:30;102484.94;;;5.35;100.00
12247;BME280;6186;52.022;4.692;2023-01-31T01:14:56;102500.69;;;5.41;99.93
12247;BME280;6186;52.022;4.692;2023-01-31T01:17:21;102505.00;;;5.39;100.00
12247;BME280;6186;52.022;4.692;2023-01-31T01:19:47;102496.28;;;5.37;99.98
12247;BME280;6186;52.022;4.692;2023-01-31T01:22:12;102496.28;;;5.37;99.57
12247;BME280;6186;52.022;4.692;2023-01-31T01:24:40;102491.06;;;5.37;100.00
12247;BME280;6186;52.022;4.692;2023-01-31T01:27:06;102478.84;;;5.36;99.80
12247;BME280;6186;52.022;4.692;2023-01-31T01:29:32;102475.34;;;5.36;100.00
12247;BME280;6186;52.022;4.692;2023-01-31T01:31:57;102490.19;;;5.37;100.00
12247;BME280;6186;52.022;4.692;2023-01-31T01:34:22;102493.69;;;5.37;99.88
12247;BME280;6186;52.022;4.692;2023-01-31T01:36:48;102480.63;;;5.37;100.00
12247;BME280;6186;52.022;4.692;2023-01-31T01:39:13;102494.50;;;5.36;100.00
12247;BME280;6186;52.022;4.692;2023-01-31T01:41:39;102473.31;;;5.23;100.00
12247;BME280;6186;52.022;4.692;2023-01-31T01:44:41;102510.31;;;5.42;100.00
12247;BME280;6186;52.022;4.692;2023-01-31T01:49:51;102517.44;;;5.49;100.00
12247;BME280;6186;52.022;4.692;2023-01-31T01:52:18;102515.75;;;5.51;100.00
12247;BME280;6186;52.022;4.692;2023-01-31T01:54:49;102510.47;;;5.48;100.00
12247;BME280;6186;52.022;4.692;2023-01-31T01:57:21;102510.66;;;5.57;100.00
12247;BME280;6186;52.022;4.692;2023-01-31T01:59:56;102508.16;;;5.62;100.00
12247;BME280;6186;52.022;4.692;2023-01-31T02:02:25;102509.09;;;5.65;100.00
12247;BME280;6186;52.022;4.692;2023-01-31T02:04:51;102502.22;;;5.70;100.00
12247;BME280;6186;52.022;4.692;2023-01-31T02:07:16;102506.56;;;5.70;100.00
12247;BME280;6186;52.022;4.692;2023-01-31T02:10:04;102508.47;;;5.77;100.00
12247;BME280;6186;52.022;4.692;2023-01-31T02:12:31;102499.88;;;5.83;100.00
12247;BME280;6186;52.022;4.692;2023-01-31T02:14:58;102500.88;;;5.88;100.00
12247;BME280;6186;52.022;4.692;2023-01-31T02:17:24;102494.00;;;5.91;100.00
12247;BME280;6186;52.022;4.692;2023-01-31T02:33:41;102495.16;;;6.05;100.00
12247;BME280;6186;52.022;4.692;2023-01-31T02:36:37;102486.38;;;6.02;100.00
12247;BME280;6186;52.022;4.692;2023-01-31T02:39:27;102479.25;;;5.95;100.00
12247;BME280;6186;52.022;4.692;2023-01-31T02:42:06;102480.03;;;5.91;100.00
12247;BME280;6186;52.022;4.692;2023-01-31T02:44:52;102483.56;;;5.93;100.00
12247;BME280;6186;52.022;4.692;2023-01-31T02:50:26;102477.41;;;5.91;100.00
12247;BME280;6186;52.022;4.692;2023-01-31T02:53:08;102469.56;;;5.91;100.00
12247;BME280;6186;52.022;4.692;2023-01-31T02:55:43;102478.38;;;5.94;100.00
12247;BME280;6186;52.022;4.692;2023-01-31T02:58:35;102462.75;;;5.97;100.00
12247;BME280;6186;52.022;4.692;2023-01-31T03:01:02;102465.38;;;5.99;100.00
12247;BME280;6186;52.022;4.692;2023-01-31T03:03:31;102466.31;;;6.01;100.00
12247;BME280;6186;52.022;4.692;2023-01-31T03:08:37;102463.72;;;6.04;100.00
12247;BME280;6186;52.022;4.692;2023-01-31T03:11:07;102469.13;;;6.11;100.00
12247;BME280;6186;52.022;4.692;2023-01-31T03:13:46;102459.69;;;6.19;100.00
12247;BME280;6186;52.022;4.692;2023-01-31T03:16:27;102460.75;;;6.30;100.00
12247;BME280;6186;52.022;4.692;2023-01-31T03:19:27;102455.72;;;6.39;100.00
12247;BME280;6186;52.022;4.692;2023-01-31T03:22:06;102457.56;;;6.45;100.00
12247;BME280;6186;52.022;4.692;2023-01-31T03:24:35;102468.06;;;6.49;100.00
12247;BME280;6186;52.022;4.692;2023-01-31T03:27:01;102450.63;;;6.48;100.00
12247;BME280;6186;52.022;4.692;2023-01-31T03:29:33;102435.78;;;6.47;100.00
12247;BME280;6186;52.022;4.692;2023-01-31T03:32:05;102449.88;;;6.57;100.00
12247;BME280;6186;52.022;4.692;2023-01-31T03:34:31;102446.38;;;6.55;100.00
12247;BME280;6186;52.022;4.692;2023-01-31T03:37:10;102443.75;;;6.55;100.00
12247;BME280;6186;52.022;4.692;2023-01-31T03:39:53;102448.97;;;6.53;100.00
12247;BME280;6186;52.022;4.692;2023-01-31T03:42:26;102387.34;;;6.18;100.00
12247;BME280;6186;52.022;4.692;2023-01-31T03:45:05;102437.53;;;6.47;100.00
12247;BME280;6186;52.022;4.692;2023-01-31T03:47:46;102442.81;;;6.50;100.00
12247;BME280;6186;52.022;4.692;2023-01-31T03:50:18;102433.16;;;6.47;100.00
12247;BME280;6186;52.022;4.692;2023-01-31T03:52:51;102430.53;;;6.46;100.00
12247;BME280;6186;52.022;4.692;2023-01-31T03:55:33;102426.16;;;6.43;100.00
12247;BME280;6186;52.022;4.692;2023-01-31T03:58:02;102422.56;;;6.40;100.00
12247;BME280;6186;52.022;4.692;2023-01-31T04:00:33;102429.50;;;6.38;100.00
12247;BME280;6186;52.022;4.692;2023-01-31T04:03:09;102431.19;;;6.33;100.00
12247;BME280;6186;52.022;4.692;2023-01-31T04:05:35;102435.56;;;6.34;100.00
12247;BME280;6186;52.022;4.692;2023-01-31T04:08:01;102433.78;;;6.33;100.00
12247;BME280;6186;52.022;4.692;2023-01-31T04:10:26;102430.25;;;6.31;100.00
12247;BME280;6186;52.022;4.692;2023-01-31T04:12:52;102428.50;;;6.30;100.00
12247;BME280;6186;52.022;4.692;2023-01-31T04:15:18;102424.22;;;6.33;100.00
12247;BME280;6186;52.022;4.692;2023-01-31T04:17:43;102407.59;;;6.30;100.00
12247;BME280;6186;52.022;4.692;2023-01-31T04:20:09;102404.19;;;6.34;100.00
12247;BME280;6186;52.022;4.692;2023-01-31T04:22:36;102406.03;;;6.39;100.00
12247;BME280;6186;52.022;4.692;2023-01-31T04:25:01;102405.16;;;6.42;100.00
12247;BME280;6186;52.022;4.692;2023-01-31T04:27:27;102403.47;;;6.44;100.00
12247;BME280;6186;52.022;4.692;2023-01-31T04:29:53;102408.75;;;6.47;100.00
12247;BME280;6186;52.022;4.692;2023-01-31T04:32:18;102399.22;;;6.49;100.00
12247;BME280;6186;52.022;4.692;2023-01-31T04:34:43;102390.50;;;6.50;100.00
12247;BME280;6186;52.022;4.692;2023-01-31T04:37:09;102393.19;;;6.54;100.00
12247;BME280;6186;52.022;4.692;2023-01-31T04:39:34;102389.72;;;6.55;100.00
12247;BME280;6186;52.022;4.692;2023-01-31T04:41:59;102380.97;;;6.55;100.00
12247;BME280;6186;52.022;4.692;2023-01-31T04:44:25;102387.19;;;6.60;100.00
12247;BME280;6186;52.022;4.692;2023-01-31T04:46:50;102380.22;;;6.62;100.00
12247;BME280;6186;52.022;4.692;2023-01-31T04:49:15;102377.63;;;6.63;100.00
12247;BME280;6186;52.022;4.692;2023-01-31T04:51:41;102366.34;;;6.66;100.00
12247;BME280;6186;52.022;4.692;2023-01-31T04:54:06;102374.22;;;6.68;100.00
12247;BME280;6186;52.022;4.692;2023-01-31T04:56:32;102370.72;;;6.68;100.00
12247;BME280;6186;52.022;4.692;2023-01-31T04:58:57;102382.06;;;6.68;100.00
12247;BME280;6186;52.022;4.692;2023-01-31T05:01:23;102375.97;;;6.70;100.00
12247;BME280;6186;52.022;4.692;2023-01-31T05:03:48;102372.44;;;6.68;100.00
12247;BME280;6186;52.022;4.692;2023-01-31T05:06:14;102373.34;;;6.70;100.00
12247;BME280;6186;52.022;4.692;2023-01-31T05:08:39;102371.59;;;6.69;100.00
12247;BME280;6186;52.022;4.692;2023-01-31T05:11:05;102370.75;;;6.70;100.00
12247;BME280;6186;52.022;4.692;2023-01-31T05:13:31;102361.16;;;6.69;100.00
12247;BME280;6186;52.022;4.692;2023-01-31T05:15:57;102360.25;;;6.68;100.00
12247;BME280;6186;52.022;4.692;2023-01-31T05:18:24;102350.59;;;6.63;100.00
12247;BME280;6186;52.022;4.692;2023-01-31T05:20:49;102355.91;;;6.69;100.00
12247;BME280;6186;52.022;4.692;2023-01-31T05:23:18;102360.22;;;6.65;100.00
12247;BME280;6186;52.022;4.692;2023-01-31T05:25:44;102369.00;;;6.69;100.00
12247;BME280;6186;52.022;4.692;2023-01-31T05:28:10;102360.25;;;6.68;100.00
12247;BME280;6186;52.022;4.692;2023-01-31T05:30:36;102357.63;;;6.68;100.00
12247;BME280;6186;52.022;4.692;2023-01-31T05:33:01;102368.13;;;6.70;100.00
12247;BME280;6186;52.022;4.692;2023-01-31T05:35:26;102358.53;;;6.71;100.00
12247;BME280;6186;52.022;4.692;2023-01-31T05:37:55;102369.00;;;6.71;100.00
12247;BME280;6186;52.022;4.692;2023-01-31T05:40:21;102362.88;;;6.70;100.00
12247;BME280;6186;52.022;4.692;2023-01-31T05:42:57;102354.19;;;6.71;100.00
12247;BME280;6186;52.022;4.692;2023-01-31T05:45:24;102350.72;;;6.72;100.00
12247;BME280;6186;52.022;4.692;2023-01-31T05:47:50;102350.72;;;6.72;100.00
12247;BME280;6186;52.022;4.692;2023-01-31T05:50:16;102362.09;;;6.74;100.00
12247;BME280;6186;52.022;4.692;2023-01-31T05:52:41;102364.69;;;6.74;100.00
12247;BME280;6186;52.022;4.692;2023-01-31T05:55:07;102351.56;;;6.70;100.00
12247;BME280;6186;52.022;4.692;2023-01-31T05:57:32;102366.47;;;6.75;100.00
12247;BME280;6186;52.022;4.692;2023-01-31T05:59:57;102363.88;;;6.77;100.00
12247;BME280;6186;52.022;4.692;2023-01-31T06:02:24;102369.13;;;6.78;100.00
12247;BME280;6186;52.022;4.692;2023-01-31T06:04:49;102365.66;;;6.79;100.00
12247;BME280;6186;52.022;4.692;2023-01-31T06:07:14;102345.56;;;6.78;100.00
12247;BME280;6186;52.022;4.692;2023-01-31T06:09:40;102342.97;;;6.80;100.00
12247;BME280;6186;52.022;4.692;2023-01-31T06:12:11;102339.44;;;6.76;100.00
12247;BME280;6186;52.022;4.692;2023-01-31T06:14:37;102328.03;;;6.73;100.00
12247;BME280;6186;52.022;4.692;2023-01-31T06:17:02;102338.59;;;6.77;100.00
12247;BME280;6186;52.022;4.692;2023-01-31T06:19:28;102334.22;;;6.78;100.00
12247;BME280;6186;52.022;4.692;2023-01-31T06:21:53;102346.47;;;6.80;100.00
12247;BME280;6186;52.022;4.692;2023-01-31T06:24:18;102341.25;;;6.80;100.00
12247;BME280;6186;52.022;4.692;2023-01-31T06:26:44;102343.91;;;6.83;100.00
12247;BME280;6186;52.022;4.692;2023-01-31T06:29:09;102332.47;;;6.78;100.00
12247;BME280;6186;52.022;4.692;2023-01-31T06:31:35;102312.28;;;6.68;100.00
12247;BME280;6186;52.022;4.692;2023-01-31T06:34:00;102335.19;;;6.83;100.00
12247;BME280;6186;52.022;4.692;2023-01-31T06:36:25;102341.38;;;6.89;100.00
12247;BME280;6186;52.022;4.692;2023-01-31T06:38:51;102330.06;;;6.90;100.00
12247;BME280;6186;52.022;4.692;2023-01-31T06:41:17;102325.72;;;6.92;100.00
12247;BME280;6186;52.022;4.692;2023-01-31T06:43:43;102313.53;;;6.94;100.00
12247;BME280;6186;52.022;4.692;2023-01-31T06:46:08;102311.72;;;6.89;100.00
12247;BME280;6186;52.022;4.692;2023-01-31T06:48:33;102303.88;;;6.90;100.00
12247;BME280;6186;52.022;4.692;2023-01-31T06:50:59;102306.59;;;6.96;100.00
12247;BME280;6186;52.022;4.692;2023-01-31T06:53:24;102298.72;;;6.96;100.00
12247;BME280;6186;52.022;4.692;2023-01-31T06:55:49;102300.47;;;6.97;100.00
12247;BME280;6186;52.022;4.692;2023-01-31T06:58:15;102290.88;;;6.98;100.00
12247;BME280;6186;52.022;4.692;2023-01-31T07:00:40;102296.13;;;6.99;100.00
12247;BME280;6186;52.022;4.692;2023-01-31T07:03:05;102289.16;;;7.00;100.00
12247;BME280;6186;52.022;4.692;2023-01-31T07:05:31;102290.91;;;7.01;100.00
12247;BME280;6186;52.022;4.692;2023-01-31T07:07:56;102285.59;;;6.95;100.00
12247;BME280;6186;52.022;4.692;2023-01-31T07:10:22;102276.09;;;7.01;100.00
12247;BME280;6186;52.022;4.692;2023-01-31T07:12:47;102277.00;;;7.03;100.00
12247;BME280;6186;52.022;4.692;2023-01-31T07:15:12;102262.19;;;7.04;100.00
12247;BME280;6186;52.022;4.692;2023-01-31T07:17:38;102262.13;;;7.02;100.00
12247;BME280;6186;52.022;4.692;2023-01-31T07:20:03;102267.38;;;7.02;100.00
12247;BME280;6186;52.022;4.692;2023-01-31T07:22:29;102270.84;;;7.00;100.00
12247;BME280;6186;52.022;4.692;2023-01-31T07:24:54;102270.84;;;7.01;100.00
12247;BME280;6186;52.022;4.692;2023-01-31T07:27:20;102263.84;;;7.00;100.00
12247;BME280;6186;52.022;4.692;2023-01-31T07:29:46;102271.69;;;7.00;100.00
12247;BME280;6186;52.022;4.692;2023-01-31T07:32:12;102275.19;;;6.99;100.00
12247;BME280;6186;52.022;4.692;2023-01-31T07:34:37;102278.69;;;6.98;100.00
12247;BME280;6186;52.022;4.692;2023-01-31T07:37:03;102268.16;;;6.95;100.00
12247;BME280;6186;52.022;4.692;2023-01-31T07:39:28;102263.81;;;6.97;100.00
12247;BME280;6186;52.022;4.692;2023-01-31T07:41:54;102266.44;;;6.99;100.00
12247;BME280;6186;52.022;4.692;2023-01-31T07:44:19;102260.38;;;7.00;100.00
12247;BME280;6186;52.022;4.692;2023-01-31T07:46:45;102258.66;;;7.03;100.00
12247;BME280;6186;52.022;4.692;2023-01-31T07:49:11;102254.34;;;7.05;100.00
12247;BME280;6186;52.022;4.692;2023-01-31T07:51:36;102253.47;;;7.06;100.00
12247;BME280;6186;52.022;4.692;2023-01-31T07:54:06;102243.88;;;7.07;100.00
12247;BME280;6186;52.022;4.692;2023-01-31T07:56:32;102243.94;;;7.11;100.00
12247;BME280;6186;52.022;4.692;2023-01-31T07:58:58;102237.81;;;7.14;100.00
12247;BME280;6186;52.022;4.692;2023-01-31T08:01:25;102235.25;;;7.15;100.00
12247;BME280;6186;52.022;4.692;2023-01-31T08:04:13;102231.78;;;7.18;100.00
12247;BME280;6186;52.022;4.692;2023-01-31T08:06:40;102217.78;;;7.16;100.00
12247;BME280;6186;52.022;4.692;2023-01-31T08:09:06;102237.91;;;7.20;100.00
12247;BME280;6186;52.022;4.692;2023-01-31T08:11:32;102234.41;;;7.19;100.00
12247;BME280;6186;52.022;4.692;2023-01-31T08:13:57;102233.50;;;7.16;100.00
12247;BME280;6186;52.022;4.692;2023-01-31T08:16:23;102229.13;;;7.16;100.00
12247;BME280;6186;52.022;4.692;2023-01-31T08:18:49;102224.81;;;7.18;100.00
12247;BME280;6186;52.022;4.692;2023-01-31T08:21:15;102226.59;;;7.22;100.00
12247;BME280;6186;52.022;4.692;2023-01-31T08:23:41;102221.34;;;7.22;100.00
12247;BME280;6186;52.022;4.692;2023-01-31T08:26:12;102213.53;;;7.25;100.00
12247;BME280;6186;52.022;4.692;2023-01-31T08:28:38;102228.38;;;7.26;100.00
12247;BME280;6186;52.022;4.692;2023-01-31T08:31:05;102227.50;;;7.26;100.00
12247;BME280;6186;52.022;4.692;2023-01-31T08:33:30;102213.53;;;7.25;100.00
12247;BME280;6186;52.022;4.692;2023-01-31T08:35:56;102218.75;;;7.25;100.00
12247;BME280;6186;52.022;4.692;2023-01-31T08:38:21;102214.41;;;7.24;100.00
12247;BME280;6186;52.022;4.692;2023-01-31T08:40:47;102205.66;;;7.25;100.00
12247;BME280;6186;52.022;4.692;2023-01-31T08:43:14;102199.53;;;7.23;100.00
12247;BME280;6186;52.022;4.692;2023-01-31T08:45:40;102198.69;;;7.24;100.00
12247;BME280;6186;52.022;4.692;2023-01-31T08:48:05;102211.78;;;7.26;100.00
12247;BME280;6186;52.022;4.692;2023-01-31T08:50:31;102206.56;;;7.27;100.00
12247;BME280;6186;52.022;4.692;2023-01-31T08:52:59;102210.09;;;7.32;100.00
12247;BME280;6186;52.022;4.692;2023-01-31T08:55:26;102211.03;;;7.39;100.00
12247;BME280;6186;52.022;4.692;2023-01-31T08:57:52;102211.94;;;7.42;100.00
12247;BME280;6186;52.022;4.692;2023-01-31T09:00:18;102226.91;;;7.54;100.00
12247;BME280;6186;52.022;4.692;2023-01-31T09:02:43;102219.09;;;7.58;100.00
12247;BME280;6186;52.022;4.692;2023-01-31T09:05:11;102223.50;;;7.63;100.00
12247;BME280;6186;52.022;4.692;2023-01-31T09:07:37;102214.75;;;7.60;100.00
12247;BME280;6186;52.022;4.692;2023-01-31T09:10:03;102207.75;;;7.61;100.00
12247;BME280;6186;52.022;4.692;2023-01-31T09:12:28;102223.53;;;7.69;100.00
12247;BME280;6186;52.022;4.692;2023-01-31T09:14:53;102213.94;;;7.69;100.00
12247;BME280;6186;52.022;4.692;2023-01-31T09:17:19;102213.06;;;7.69;100.00
12247;BME280;6186;52.022;4.692;2023-01-31T09:19:45;102205.22;;;7.72;100.00
12247;BME280;6186;52.022;4.692;2023-01-31T09:22:12;102202.63;;;7.73;100.00
12247;BME280;6186;52.022;4.692;2023-01-31T09:24:38;102191.25;;;7.74;100.00
12247;BME280;6186;52.022;4.692;2023-01-31T09:27:03;102186.94;;;7.79;100.00
12247;BME280;6186;52.022;4.692;2023-01-31T09:29:29;102172.16;;;7.89;100.00
12247;BME280;6186;52.022;4.692;2023-01-31T09:31:54;102184.44;;;7.96;100.00
12247;BME280;6186;52.022;4.692;2023-01-31T09:34:20;102171.44;;;8.12;100.00
12247;BME280;6186;52.022;4.692;2023-01-31T09:36:46;102167.13;;;8.19;100.00
12247;BME280;6186;52.022;4.692;2023-01-31T09:39:12;102162.75;;;8.19;100.00
12247;BME280;6186;52.022;4.692;2023-01-31T09:41:43;102162.75;;;8.22;100.00
12247;BME280;6186;52.022;4.692;2023-01-31T09:44:16;102161.88;;;8.22;100.00
12247;BME280;6186;52.022;4.692;2023-01-31T09:46:48;102175.88;;;8.21;100.00
12247;BME280;6186;52.022;4.692;2023-01-31T09:49:21;102175.88;;;8.19;100.00
12247;BME280;6186;52.022;4.692;2023-01-31T09:51:54;102182.84;;;8.17;100.00
12247;BME280;6186;52.022;4.692;2023-01-31T09:54:35;102175.84;;;8.15;100.00
12247;BME280;6186;52.022;4.692;2023-01-31T09:57:16;102163.56;;;8.12;100.00
12247;BME280;6186;52.022;4.692;2023-01-31T10:07:58;102168.94;;;8.29;100.00
12247;BME280;6186;52.022;4.692;2023-01-31T10:10:36;102182.09;;;8.30;100.00
12247;BME280;6186;52.022;4.692;2023-01-31T10:13:09;102190.84;;;8.35;100.00
12247;BME280;6186;52.022;4.692;2023-01-31T10:15:46;102177.75;;;8.40;100.00
12247;BME280;6186;52.022;4.692;2023-01-31T10:20:52;102181.28;;;8.45;100.00
12247;BME280;6186;52.022;4.692;2023-01-31T10:23:26;102195.28;;;8.50;100.00
12247;BME280;6186;52.022;4.692;2023-01-31T10:25:59;102192.69;;;8.51;100.00
12247;BME280;6186;52.022;4.692;2023-01-31T10:31:02;102190.94;;;8.50;100.00
12247;BME280;6186;52.022;4.692;2023-01-31T10:33:41;102186.53;;;8.46;100.00
12247;BME280;6186;52.022;4.692;2023-01-31T10:36:24;102183.06;;;8.47;100.00
12247;BME280;6186;52.022;4.692;2023-01-31T10:39:17;102168.16;;;8.45;100.00
12247;BME280;6186;52.022;4.692;2023-01-31T10:42:05;102161.16;;;8.48;100.00
12247;BME280;6186;52.022;4.692;2023-01-31T10:47:11;102160.31;;;8.51;100.00
12247;BME280;6186;52.022;4.692;2023-01-31T10:49:37;102173.44;;;8.55;100.00
12247;BME280;6186;52.022;4.692;2023-01-31T10:57:00;102162.09;;;8.60;100.00
12247;BME280;6186;52.022;4.692;2023-01-31T10:59:33;102162.97;;;8.60;100.00
12247;BME280;6186;52.022;4.692;2023-01-31T11:02:00;102162.97;;;8.62;100.00
12247;BME280;6186;52.022;4.692;2023-01-31T11:04:30;102171.72;;;8.61;100.00
12247;BME280;6186;52.022;4.692;2023-01-31T11:06:57;102176.09;;;8.60;100.00
12247;BME280;6186;52.022;4.692;2023-01-31T11:09:28;102178.72;;;8.59;100.00
12247;BME280;6186;52.022;4.692;2023-01-31T11:12:00;102177.84;;;8.60;100.00
12247;BME280;6186;52.022;4.692;2023-01-31T11:14:25;102183.09;;;8.61;100.00
12247;BME280;6186;52.022;4.692;2023-01-31T11:20:01;102186.59;;;8.63;100.00
12247;BME280;6186;52.022;4.692;2023-01-31T11:22:31;102166.53;;;8.67;100.00
12247;BME280;6186;52.022;4.692;2023-01-31T11:25:00;102182.25;;;8.68;100.00
12247;BME280;6186;52.022;4.692;2023-01-31T11:27:40;102174.38;;;8.68;100.00
12247;BME280;6186;52.022;4.692;2023-01-31T11:30:21;102177.00;;;8.73;100.00
12247;BME280;6186;52.022;4.692;2023-01-31T11:32:49;102167.41;;;8.73;100.00
12247;BME280;6186;52.022;4.692;2023-01-31T11:37:53;102167.44;;;8.76;100.00
12247;BME280;6186;52.022;4.692;2023-01-31T11:40:41;102149.06;;;8.76;100.00
12247;BME280;6186;52.022;4.692;2023-01-31T11:45:42;102164.81;;;8.79;100.00
12247;BME280;6186;52.022;4.692;2023-01-31T11:48:16;102149.91;;;8.75;100.00
12247;BME280;6186;52.022;4.692;2023-01-31T11:50:52;102147.31;;;8.80;100.00
12247;BME280;6186;52.022;4.692;2023-01-31T11:53:26;102153.44;;;8.86;100.00
12247;BME280;6186;52.022;4.692;2023-01-31T11:55:55;102156.06;;;8.88;100.00
12247;BME280;6186;52.022;4.692;2023-01-31T11:58:22;102153.47;;;8.89;100.00
12247;BME280;6186;52.022;4.692;2023-01-31T12:01:04;102135.09;;;8.91;100.00
12247;BME280;6186;52.022;4.692;2023-01-31T12:03:31;102129.81;;;8.92;100.00
12247;BME280;6186;52.022;4.692;2023-01-31T12:06:00;102136.84;;;8.95;100.00
12247;BME280;6186;52.022;4.692;2023-01-31T12:10:57;102141.22;;;9.00;100.00
12247;BME280;6186;52.022;4.692;2023-01-31T12:13:23;102121.09;;;8.95;100.00
12247;BME280;6186;52.022;4.692;2023-01-31T12:15:58;102128.94;;;8.99;100.00
12247;BME280;6186;52.022;4.692;2023-01-31T12:18:49;102125.47;;;9.03;100.00
12247;BME280;6186;52.022;4.692;2023-01-31T12:21:24;102118.47;;;9.05;100.00
12247;BME280;6186;52.022;4.692;2023-01-31T12:30:10;102115.84;;;9.11;100.00
12247;BME280;6186;52.022;4.692;2023-01-31T12:33:07;102117.63;;;9.15;100.00
12247;BME280;6186;52.022;4.692;2023-01-31T12:41:30;102075.59;;;9.06;100.00
12247;BME280;6186;52.022;4.692;2023-01-31T12:47:25;102106.25;;;9.34;100.00
12247;BME280;6186;52.022;4.692;2023-01-31T12:50:18;102096.59;;;9.41;100.00
12247;BME280;6186;52.022;4.692;2023-01-31T12:55:31;102089.56;;;9.52;100.00
12247;BME280;6186;52.022;4.692;2023-01-31T13:00:56;102103.59;;;9.66;100.00
12247;BME280;6186;52.022;4.692;2023-01-31T13:06:14;102086.03;;;9.70;100.00
12247;BME280;6186;52.022;4.692;2023-01-31T13:08:58;102084.28;;;9.73;100.00
12247;BME280;6186;52.022;4.692;2023-01-31T13:11:34;102082.53;;;9.80;100.00
12247;BME280;6186;52.022;4.692;2023-01-31T13:14:03;102084.22;;;10.05;100.00
12247;BME280;6186;52.022;4.692;2023-01-31T13:16:33;102084.00;;;10.61;100.00
12247;BME280;6186;52.022;4.692;2023-01-31T13:19:05;102089.03;;;10.97;100.00
12247;BME280;6186;52.022;4.692;2023-01-31T13:21:34;102097.78;;;11.06;100.00
12247;BME280;6186;52.022;4.692;2023-01-31T13:24:10;102058.41;;;10.81;100.00
12247;BME280;6186;52.022;4.692;2023-01-31T13:26:42;102084.72;;;10.85;100.00
12247;BME280;6186;52.022;4.692;2023-01-31T13:29:20;102091.69;;;10.92;100.00
12247;BME280;6186;52.022;4.692;2023-01-31T13:32:00;102081.22;;;10.83;100.00
12247;BME280;6186;52.022;4.692;2023-01-31T13:37:00;102091.94;;;10.58;100.00
12247;BME280;6186;52.022;4.692;2023-01-31T13:39:36;102095.44;;;10.51;100.00
12247;BME280;6186;52.022;4.692;2023-01-31T13:42:03;102093.72;;;10.47;100.00
12247;BME280;6186;52.022;4.692;2023-01-31T13:44:29;102094.50;;;10.64;100.00
12247;BME280;6186;52.022;4.692;2023-01-31T13:49:37;102113.78;;;10.72;100.00
12247;BME280;6186;52.022;4.692;2023-01-31T13:52:11;102092.75;;;10.67;100.00
12247;BME280;6186;52.022;4.692;2023-01-31T13:54:44;102100.69;;;10.61;100.00
12247;BME280;6186;52.022;4.692;2023-01-31T13:57:42;102107.75;;;10.50;100.00
12247;BME280;6186;52.022;4.692;2023-01-31T14:03:11;102126.25;;;10.36;100.00
12247;BME280;6186;52.022;4.692;2023-01-31T14:11:00;102149.63;;;10.98;100.00
12247;BME280;6186;52.022;4.692;2023-01-31T14:13:36;102153.09;;;11.03;100.00
12247;BME280;6186;52.022;4.692;2023-01-31T14:16:03;102139.06;;;11.04;100.00
12247;BME280;6186;52.022;4.692;2023-01-31T14:18:48;102147.81;;;11.06;100.00
12247;BME280;6186;52.022;4.692;2023-01-31T14:23:58;102143.31;;;11.25;100.00
12247;BME280;6186;52.022;4.692;2023-01-31T14:29:19;102158.00;;;11.58;100.00
12247;BME280;6186;52.022;4.692;2023-01-31T14:31:49;102161.50;;;11.66;100.00
12247;BME280;6186;52.022;4.692;2023-01-31T14:58:42;102172.59;;;10.78;100.00
12247;BME280;6186;52.022;4.692;2023-01-31T15:01:09;102175.28;;;10.65;100.00
12247;BME280;6186;52.022;4.692;2023-01-31T15:03:51;102179.69;;;10.55;100.00
12247;BME280;6186;52.022;4.692;2023-01-31T15:08:48;102184.09;;;10.52;100.00
12247;BME280;6186;52.022;4.692;2023-01-31T15:16:23;102197.25;;;10.55;100.00
12247;BME280;6186;52.022;4.692;2023-01-31T15:21:29;102190.25;;;10.49;100.00
12247;BME280;6186;52.022;4.692;2023-01-31T15:23:57;102190.25;;;10.46;100.00